createdAt,value
2023-05-10T00:01:39.895Z,0.60
2023-05-10T00:04:06.907Z,0.63
2023-05-10T00:06:36.445Z,0.50
2023-05-10T00:09:03.503Z,0.60
2023-05-10T00:11:30.467Z,0.40
2023-05-10T00:13:57.376Z,0.40
2023-05-10T00:16:24.356Z,0.30
2023-05-10T00:18:51.274Z,0.40
2023-05-10T00:21:18.157Z,0.30
2023-05-10T00:23:47.732Z,0.30
2023-05-10T00:26:14.709Z,0.30
2023-05-10T00:28:41.618Z,0.20
2023-05-10T00:31:08.605Z,0.37
2023-05-10T00:33:35.487Z,0.20
2023-05-10T00:36:02.404Z,0.30
2023-05-10T00:38:29.322Z,0.40
2023-05-10T00:40:58.790Z,0.40
2023-05-10T00:43:25.731Z,0.20
2023-05-10T00:45:53.701Z,0.30
2023-05-10T00:48:20.864Z,0.40
2023-05-10T00:50:47.925Z,0.20
2023-05-10T00:53:16.005Z,0.30
2023-05-10T00:55:43.454Z,0.30
2023-05-10T00:58:13.228Z,0.30
2023-05-10T01:00:43.570Z,0.40
2023-05-10T01:03:11.346Z,0.40
2023-05-10T01:05:38.428Z,0.30
2023-05-10T01:08:05.901Z,0.37
2023-05-10T01:10:33.111Z,0.20
2023-05-10T01:13:00.694Z,0.30
2023-05-10T01:15:31.931Z,0.30
2023-05-10T01:17:59.264Z,0.40
2023-05-10T01:20:27.647Z,0.33
2023-05-10T01:23:13.641Z,0.40
2023-05-10T01:26:13.233Z,0.30
2023-05-10T01:29:12.959Z,0.40
2023-05-10T01:32:12.897Z,0.30
2023-05-10T01:34:48.992Z,0.30
2023-05-10T01:37:21.737Z,0.20
2023-05-10T01:39:54.784Z,0.30
2023-05-10T01:42:26.487Z,0.47
2023-05-10T01:45:01.078Z,0.30
2023-05-10T01:47:35.389Z,0.20
2023-05-10T01:50:05.796Z,0.30
2023-05-10T01:52:37.018Z,0.30
2023-05-10T01:55:07.764Z,0.30
2023-05-10T01:57:36.965Z,0.30
2023-05-10T02:00:05.600Z,0.40
2023-05-10T02:02:38.917Z,0.30
2023-05-10T02:05:08.728Z,0.33
2023-05-10T02:07:37.586Z,0.20
2023-05-10T02:10:07.161Z,0.30
2023-05-10T02:12:37.203Z,0.20
2023-05-10T02:15:06.618Z,0.30
2023-05-10T02:17:38.172Z,0.30
2023-05-10T02:20:08.533Z,0.30
2023-05-10T02:22:36.781Z,0.37
2023-05-10T02:25:05.149Z,0.30
2023-05-10T02:27:32.670Z,0.20
2023-05-10T02:30:00.035Z,0.60
2023-05-10T02:32:29.644Z,0.23
2023-05-10T02:35:02.499Z,0.30
2023-05-10T02:37:30.168Z,0.30
2023-05-10T02:39:58.209Z,0.30
2023-05-10T02:42:27.727Z,0.40
2023-05-10T02:44:57.696Z,0.33
2023-05-10T02:47:24.712Z,0.40
2023-05-10T02:49:51.674Z,0.40
2023-05-10T02:52:26.575Z,0.50
2023-05-10T02:54:56.810Z,0.30
2023-05-10T02:57:28.391Z,0.40
2023-05-10T02:59:55.918Z,0.40
2023-05-10T03:02:22.921Z,0.40
2023-05-10T03:04:49.944Z,0.40
2023-05-10T03:07:16.961Z,0.30
2023-05-10T03:09:46.515Z,0.40
2023-05-10T03:12:19.782Z,0.40
2023-05-10T03:14:58.581Z,0.40
2023-05-10T03:17:31.336Z,0.43
2023-05-10T03:20:00.580Z,0.40
2023-05-10T03:22:33.367Z,0.40
2023-05-10T03:25:07.397Z,0.40
2023-05-10T03:27:36.486Z,0.50
2023-05-10T03:30:04.525Z,0.40
2023-05-10T03:32:31.557Z,0.50
2023-05-10T03:34:58.419Z,0.40
2023-05-10T03:37:25.329Z,0.40
2023-05-10T03:39:52.299Z,0.43
2023-05-10T03:42:21.881Z,0.53
2023-05-10T03:44:48.784Z,0.40
2023-05-10T03:47:15.628Z,0.50
2023-05-10T03:49:42.575Z,0.50
2023-05-10T03:52:09.475Z,0.50
2023-05-10T03:54:36.387Z,0.53
2023-05-10T03:57:03.411Z,0.50
2023-05-10T03:59:32.914Z,0.57
2023-05-10T04:01:59.861Z,0.53
2023-05-10T04:04:26.804Z,0.40
2023-05-10T04:06:53.772Z,0.50
2023-05-10T04:09:20.688Z,2.00
2023-05-10T04:11:47.639Z,1.60
2023-05-10T04:14:14.549Z,0.90
2023-05-10T04:16:44.119Z,0.70
2023-05-10T04:19:11.020Z,0.70
2023-05-10T04:21:37.932Z,0.80
2023-05-10T04:24:05.505Z,0.60
2023-05-10T04:26:32.470Z,1.00
2023-05-10T04:28:59.418Z,0.60
2023-05-10T04:31:26.425Z,0.70
2023-05-10T04:33:55.953Z,0.50
2023-05-10T04:36:23.017Z,0.60
2023-05-10T04:38:49.961Z,0.80
2023-05-10T04:41:16.879Z,0.60
2023-05-10T04:43:43.775Z,0.87
2023-05-10T04:46:10.732Z,0.90
2023-05-10T04:48:37.727Z,0.60
2023-05-10T04:51:07.337Z,0.70
2023-05-10T04:53:34.471Z,0.70
2023-05-10T04:56:01.381Z,0.60
2023-05-10T04:58:28.301Z,0.70
2023-05-10T05:00:55.191Z,0.80
2023-05-10T05:03:22.157Z,0.77
2023-05-10T05:05:49.288Z,0.70
2023-05-10T05:08:18.820Z,0.80
2023-05-10T05:10:45.678Z,0.70
2023-05-10T05:13:13.819Z,0.60
2023-05-10T05:15:40.735Z,0.60
2023-05-10T05:18:07.707Z,0.63
2023-05-10T05:20:34.694Z,0.63
2023-05-10T05:23:01.747Z,0.60
2023-05-10T05:25:31.351Z,0.60
2023-05-10T05:27:58.237Z,0.60
2023-05-10T05:30:25.136Z,0.77
2023-05-10T05:32:52.090Z,0.70
2023-05-10T05:35:19.401Z,0.70
2023-05-10T05:37:46.480Z,0.60
2023-05-10T05:40:14.136Z,0.60
2023-05-10T05:42:43.644Z,0.63
2023-05-10T05:45:10.825Z,0.80
2023-05-10T05:47:37.790Z,0.70
2023-05-10T05:50:05.714Z,0.60
2023-05-10T05:52:32.598Z,0.60
2023-05-10T05:54:59.486Z,0.80
2023-05-10T05:57:26.370Z,0.80
2023-05-10T05:59:55.885Z,0.83
2023-05-10T06:02:22.860Z,0.83
2023-05-10T06:04:49.757Z,0.70
2023-05-10T06:07:16.671Z,1.00
2023-05-10T06:09:43.566Z,0.70
2023-05-10T06:12:10.460Z,0.90
2023-05-10T06:14:37.376Z,1.00
2023-05-10T06:17:06.927Z,1.20
2023-05-10T06:19:33.824Z,0.87
2023-05-10T06:22:00.691Z,0.70
2023-05-10T06:24:27.600Z,0.87
2023-05-10T06:26:54.520Z,1.17
2023-05-10T06:29:21.462Z,0.90
2023-05-10T06:31:48.382Z,0.90
2023-05-10T06:34:17.913Z,0.97
2023-05-10T06:36:45.198Z,1.03
2023-05-10T06:39:12.162Z,0.80
2023-05-10T06:41:39.070Z,1.10
2023-05-10T06:44:05.990Z,1.10
2023-05-10T06:46:32.950Z,0.97
2023-05-10T06:48:59.837Z,1.20
2023-05-10T06:51:29.319Z,0.80
2023-05-10T06:53:56.290Z,0.90
2023-05-10T06:56:23.236Z,1.10
2023-05-10T06:58:50.150Z,0.83
2023-05-10T07:01:17.203Z,1.00
2023-05-10T07:03:44.249Z,1.20
2023-05-10T07:06:21.639Z,1.23
2023-05-10T07:08:55.268Z,1.10
2023-05-10T07:11:22.182Z,1.00
2023-05-10T07:13:49.062Z,0.80
2023-05-10T07:16:16.050Z,1.10
2023-05-10T07:18:43.064Z,1.27
2023-05-10T07:21:10.040Z,1.03
2023-05-10T07:23:37.068Z,1.50
2023-05-10T07:26:06.622Z,1.00
2023-05-10T07:28:33.501Z,1.33
2023-05-10T07:31:00.466Z,1.00
2023-05-10T07:33:27.337Z,1.30
2023-05-10T07:35:54.224Z,1.00
2023-05-10T07:38:21.135Z,1.13
2023-05-10T07:40:48.190Z,1.10
2023-05-10T07:43:17.665Z,1.20
2023-05-10T07:45:44.599Z,1.03
2023-05-10T07:48:11.523Z,0.90
2023-05-10T07:50:38.450Z,1.30
2023-05-10T07:53:05.351Z,0.80
2023-05-10T07:55:32.211Z,1.20
2023-05-10T07:57:59.199Z,1.07
2023-05-10T08:00:28.694Z,1.10
2023-05-10T08:02:55.759Z,1.00
2023-05-10T08:05:22.723Z,1.60
2023-05-10T08:07:49.619Z,1.20
2023-05-10T08:10:16.528Z,1.10
2023-05-10T08:12:43.467Z,1.10
2023-05-10T08:15:11.516Z,1.00
2023-05-10T08:17:41.012Z,1.10
2023-05-10T08:20:08.822Z,1.20
2023-05-10T08:22:35.772Z,1.47
2023-05-10T08:25:02.717Z,1.20
2023-05-10T08:27:29.601Z,1.27
2023-05-10T08:29:56.507Z,1.40
2023-05-10T08:32:23.405Z,1.20
2023-05-10T08:34:52.956Z,1.20
2023-05-10T08:37:19.877Z,1.30
2023-05-10T08:39:46.789Z,1.10
2023-05-10T08:42:17.273Z,1.10
2023-05-10T08:44:44.257Z,1.27
2023-05-10T08:47:12.668Z,0.90
2023-05-10T08:49:40.436Z,1.17
2023-05-10T08:52:13.859Z,0.90
2023-05-10T08:54:40.833Z,1.17
2023-05-10T08:57:07.838Z,1.00
2023-05-10T08:59:34.817Z,1.00
2023-05-10T09:02:02.621Z,1.00
2023-05-10T09:04:30.624Z,1.00
2023-05-10T09:06:58.056Z,0.97
2023-05-10T09:09:28.949Z,1.20
2023-05-10T09:11:56.105Z,1.07
2023-05-10T09:14:26.016Z,1.43
2023-05-10T09:16:53.694Z,1.10
2023-05-10T09:19:20.656Z,1.10
2023-05-10T09:21:47.578Z,0.90
2023-05-10T09:24:14.484Z,1.00
2023-05-10T09:26:49.833Z,1.07
2023-05-10T09:29:17.689Z,1.23
2023-05-10T09:31:46.661Z,1.40
2023-05-10T09:34:17.524Z,1.00
2023-05-10T09:36:55.050Z,1.10
2023-05-10T09:39:22.153Z,0.90
2023-05-10T09:41:51.808Z,0.87
2023-05-10T09:44:18.780Z,1.10
2023-05-10T09:46:50.371Z,1.30
2023-05-10T09:49:17.266Z,0.90
2023-05-10T09:51:44.220Z,0.87
2023-05-10T09:54:12.928Z,0.80
2023-05-10T09:56:40.031Z,0.90
2023-05-10T09:59:12.542Z,0.80
2023-05-10T10:01:40.270Z,1.00
2023-05-10T10:04:08.505Z,1.00
2023-05-10T10:06:38.628Z,1.10
2023-05-10T10:09:06.511Z,1.00
2023-05-10T10:11:35.211Z,1.10
2023-05-10T10:14:02.356Z,1.00
2023-05-10T10:16:33.373Z,1.00
2023-05-10T10:19:00.471Z,1.30
2023-05-10T10:21:28.073Z,1.13
2023-05-10T10:23:55.238Z,1.03
2023-05-10T10:26:22.545Z,1.30
2023-05-10T10:28:57.963Z,1.10
2023-05-10T10:31:35.703Z,1.10
2023-05-10T10:34:06.759Z,0.93
2023-05-10T10:36:34.228Z,0.90
2023-05-10T10:39:02.860Z,1.10
2023-05-10T10:41:32.518Z,0.83
2023-05-10T10:44:27.376Z,0.90
2023-05-10T10:47:05.163Z,0.70
2023-05-10T10:49:32.922Z,0.63
2023-05-10T10:52:22.750Z,0.50
2023-05-10T10:54:53.603Z,0.70
2023-05-10T10:57:21.326Z,0.70
2023-05-10T10:59:49.131Z,0.60
2023-05-10T11:02:43.991Z,0.63
2023-05-10T11:05:40.611Z,0.57
2023-05-10T11:08:13.477Z,0.50
2023-05-10T11:10:41.429Z,0.60
2023-05-10T11:13:09.955Z,0.40
2023-05-10T11:15:38.163Z,0.50
2023-05-10T11:18:26.201Z,0.60
2023-05-10T11:20:56.222Z,0.57
2023-05-10T11:23:23.672Z,0.70
2023-05-10T11:25:51.021Z,0.50
2023-05-10T11:28:20.980Z,0.50
2023-05-10T11:30:48.844Z,0.53
2023-05-10T11:33:19.804Z,0.60
2023-05-10T11:35:49.482Z,0.60
2023-05-10T11:38:16.671Z,0.73
2023-05-10T11:40:44.292Z,0.70
2023-05-10T11:43:11.248Z,0.70
2023-05-10T11:45:38.739Z,0.63
2023-05-10T11:48:06.090Z,0.53
2023-05-10T11:50:33.416Z,0.80
2023-05-10T11:53:03.069Z,0.70
2023-05-10T11:55:30.166Z,0.70
2023-05-10T11:58:02.189Z,0.70
2023-05-10T12:00:29.857Z,0.57
2023-05-10T12:02:56.953Z,0.60
2023-05-10T12:05:24.512Z,0.60
2023-05-10T12:07:51.643Z,0.67
2023-05-10T12:10:27.610Z,0.60
2023-05-10T12:12:54.621Z,0.50
2023-05-10T12:15:23.269Z,0.70
2023-05-10T12:17:50.779Z,0.50
2023-05-10T12:20:19.308Z,0.60
2023-05-10T12:22:51.134Z,0.60
2023-05-10T12:25:22.885Z,0.40
2023-05-10T12:27:52.137Z,0.40
2023-05-10T12:30:23.365Z,0.67
2023-05-10T12:32:50.948Z,0.53
2023-05-10T12:35:18.364Z,0.60
2023-05-10T12:37:45.359Z,0.50
2023-05-10T12:40:12.818Z,0.60
2023-05-10T12:42:42.955Z,0.60
2023-05-10T12:45:10.691Z,0.50
2023-05-10T12:47:38.256Z,0.83
2023-05-10T12:50:06.667Z,0.70
2023-05-10T12:52:33.967Z,0.50
2023-05-10T12:55:01.439Z,0.70
2023-05-10T12:57:28.566Z,0.50
2023-05-10T12:59:58.315Z,0.70
2023-05-10T13:02:25.331Z,0.60
2023-05-10T13:04:52.441Z,0.60
2023-05-10T13:07:19.506Z,0.60
2023-05-10T13:09:46.773Z,0.70
2023-05-10T13:12:13.790Z,0.50
2023-05-10T13:14:40.715Z,0.70
2023-05-10T13:17:10.828Z,0.40
2023-05-10T13:19:37.791Z,0.60
2023-05-10T13:22:04.706Z,0.60
2023-05-10T13:24:31.637Z,0.50
2023-05-10T13:26:59.507Z,0.70
2023-05-10T13:29:26.443Z,0.60
2023-05-10T13:31:53.487Z,0.50
2023-05-10T13:34:23.345Z,0.50
2023-05-10T13:36:50.346Z,0.40
2023-05-10T13:39:17.492Z,0.53
2023-05-10T13:41:45.073Z,0.50
2023-05-10T13:44:13.953Z,0.50
2023-05-10T13:46:41.108Z,0.50
2023-05-10T13:49:08.198Z,0.60
2023-05-10T13:51:38.002Z,0.50
2023-05-10T13:54:05.014Z,0.57
2023-05-10T13:56:31.960Z,0.50
2023-05-10T13:58:58.908Z,0.40
2023-05-10T14:01:25.891Z,0.70
2023-05-10T14:03:53.070Z,0.50
2023-05-10T14:06:20.255Z,0.50
2023-05-10T14:08:49.873Z,0.50
2023-05-10T14:11:16.900Z,0.43
2023-05-10T14:13:43.846Z,0.50
2023-05-10T14:16:10.786Z,0.57
2023-05-10T14:18:37.747Z,0.40
2023-05-10T14:21:06.385Z,0.50
2023-05-10T14:23:33.301Z,0.50
2023-05-10T14:26:02.983Z,0.40
2023-05-10T14:28:40.370Z,0.40
2023-05-10T14:31:07.781Z,0.50
2023-05-10T14:33:34.738Z,0.57
2023-05-10T14:36:01.706Z,0.47
2023-05-10T14:38:28.676Z,0.50
2023-05-10T14:40:55.600Z,0.50
2023-05-10T14:43:25.211Z,0.60
2023-05-10T14:45:52.126Z,0.70
2023-05-10T14:48:19.059Z,0.50
2023-05-10T14:50:46.755Z,0.53
2023-05-10T14:53:13.807Z,0.40
2023-05-10T14:55:40.969Z,0.60
2023-05-10T14:58:08.037Z,0.60
2023-05-10T15:00:37.644Z,0.60
2023-05-10T15:03:05.171Z,0.60
2023-05-10T15:05:32.629Z,0.50
2023-05-10T15:07:59.910Z,0.60
2023-05-10T15:10:26.836Z,0.70
2023-05-10T15:12:53.717Z,0.67
2023-05-10T15:15:20.783Z,0.50
2023-05-10T15:17:50.324Z,0.50
2023-05-10T15:20:17.422Z,0.50
2023-05-10T15:22:44.443Z,0.57
2023-05-10T15:25:11.387Z,0.50
2023-05-10T15:27:38.304Z,0.50
2023-05-10T15:30:06.823Z,0.50
2023-05-10T15:32:33.816Z,0.50
2023-05-10T15:35:03.648Z,0.53
2023-05-10T15:37:30.672Z,0.70
2023-05-10T15:39:57.641Z,0.60
2023-05-10T15:42:24.618Z,0.60
2023-05-10T15:44:51.516Z,0.70
2023-05-10T15:47:18.419Z,0.80
2023-05-10T15:49:45.400Z,0.60
2023-05-10T15:52:14.944Z,0.60
2023-05-10T15:54:41.882Z,0.50
2023-05-10T15:57:08.824Z,0.70
2023-05-10T15:59:35.804Z,0.70
2023-05-10T16:02:02.867Z,0.70
2023-05-10T16:04:29.860Z,0.70
2023-05-10T16:06:56.754Z,0.70
2023-05-10T16:09:26.279Z,0.83
2023-05-10T16:11:53.229Z,0.60
2023-05-10T16:14:20.297Z,0.70
2023-05-10T16:16:47.318Z,0.50
2023-05-10T16:19:14.374Z,0.60
2023-05-10T16:21:41.411Z,0.60
2023-05-10T16:24:08.463Z,0.77
2023-05-10T16:26:41.261Z,0.53
2023-05-10T16:29:08.513Z,0.47
2023-05-10T16:31:35.667Z,0.50
2023-05-10T16:34:02.641Z,0.60
2023-05-10T16:36:29.719Z,0.50
2023-05-10T16:38:56.641Z,0.60
2023-05-10T16:41:23.564Z,0.47
2023-05-10T16:43:53.085Z,0.77
2023-05-10T16:46:20.044Z,0.60
2023-05-10T16:48:46.954Z,0.73
2023-05-10T16:51:13.889Z,0.60
2023-05-10T16:53:40.885Z,0.57
2023-05-10T16:56:07.846Z,0.53
2023-05-10T16:58:34.743Z,0.43
2023-05-10T17:01:04.502Z,0.70
2023-05-10T17:03:31.457Z,0.60
2023-05-10T17:05:58.658Z,0.70
2023-05-10T17:08:25.564Z,0.50
2023-05-10T17:10:52.482Z,0.50
2023-05-10T17:13:19.426Z,0.70
2023-05-10T17:15:46.609Z,0.63
2023-05-10T17:18:16.201Z,0.50
2023-05-10T17:20:44.355Z,0.70
2023-05-10T17:23:11.427Z,0.60
2023-05-10T17:25:38.413Z,0.80
2023-05-10T17:28:05.358Z,0.90
2023-05-10T17:30:32.324Z,0.60
2023-05-10T17:32:59.639Z,0.70
2023-05-10T17:35:29.705Z,0.63
2023-05-10T17:37:56.759Z,0.60
2023-05-10T17:40:23.697Z,0.60
2023-05-10T17:42:50.687Z,0.60
2023-05-10T17:45:18.012Z,0.60
2023-05-10T17:47:45.251Z,0.60
2023-05-10T17:50:12.272Z,0.67
2023-05-10T17:52:41.830Z,0.70
2023-05-10T17:55:09.567Z,0.63
2023-05-10T17:57:36.513Z,0.50
2023-05-10T18:00:03.928Z,0.47
2023-05-10T18:02:30.905Z,0.40
2023-05-10T18:04:59.847Z,0.63
2023-05-10T18:07:27.165Z,0.70
2023-05-10T18:09:56.758Z,0.63
2023-05-10T18:12:24.231Z,0.60
2023-05-10T18:14:51.534Z,0.50
2023-05-10T18:17:18.467Z,0.80
2023-05-10T18:19:45.511Z,0.63
2023-05-10T18:22:12.401Z,0.70
2023-05-10T18:24:40.322Z,0.60
2023-05-10T18:27:10.165Z,0.40
2023-05-10T18:29:37.199Z,0.70
2023-05-10T18:32:04.659Z,0.90
2023-05-10T18:34:31.680Z,0.87
2023-05-10T18:36:59.207Z,0.50
2023-05-10T18:39:26.204Z,0.70
2023-05-10T18:41:53.286Z,0.70
2023-05-10T18:44:22.967Z,1.20
2023-05-10T18:46:50.414Z,1.33
2023-05-10T18:49:18.330Z,1.00
2023-05-10T18:51:45.350Z,0.90
2023-05-10T18:54:12.292Z,1.30
2023-05-10T18:56:39.184Z,1.00
2023-05-10T18:59:06.101Z,1.20
2023-05-10T19:01:35.724Z,1.60
2023-05-10T19:04:02.714Z,1.80
2023-05-10T19:06:29.721Z,1.70
2023-05-10T19:08:56.670Z,1.90
2023-05-10T19:11:23.686Z,1.67
2023-05-10T19:13:50.797Z,1.30
2023-05-10T19:16:24.349Z,1.60
2023-05-10T19:18:54.155Z,0.97
2023-05-10T19:21:24.850Z,1.00
2023-05-10T19:23:54.430Z,0.80
2023-05-10T19:26:23.372Z,1.00
2023-05-10T19:28:50.897Z,1.00
2023-05-10T19:31:17.933Z,0.90
2023-05-10T19:33:45.252Z,0.80
2023-05-10T19:36:15.004Z,0.80
2023-05-10T19:38:42.066Z,0.60
2023-05-10T19:41:09.033Z,1.13
2023-05-10T19:43:36.090Z,0.70
2023-05-10T19:46:03.463Z,0.67
2023-05-10T19:48:30.614Z,0.70
2023-05-10T19:51:01.257Z,0.80
2023-05-10T19:53:31.351Z,0.80
2023-05-10T19:56:03.595Z,0.70
2023-05-10T19:58:30.559Z,1.20
2023-05-10T20:00:57.588Z,1.60
2023-05-10T20:03:24.653Z,1.40
2023-05-10T20:05:51.716Z,1.40
2023-05-10T20:08:18.663Z,1.67
2023-05-10T20:10:48.365Z,1.80
2023-05-10T20:13:15.560Z,1.47
2023-05-10T20:15:42.523Z,1.40
2023-05-10T20:18:09.596Z,1.47
2023-05-10T20:20:36.494Z,1.30
2023-05-10T20:23:03.794Z,1.70
2023-05-10T20:25:30.755Z,1.80
2023-05-10T20:28:00.334Z,2.00
2023-05-10T20:30:27.407Z,2.50
2023-05-10T20:32:54.436Z,1.90
2023-05-10T20:35:21.402Z,1.47
2023-05-10T20:37:48.327Z,1.40
2023-05-10T20:40:15.461Z,1.73
2023-05-10T20:42:48.184Z,2.10
2023-05-10T20:45:21.969Z,2.10
2023-05-10T20:47:49.033Z,2.10
2023-05-10T20:50:18.109Z,1.60
2023-05-10T20:52:45.329Z,1.03
2023-05-10T20:55:12.286Z,1.00
2023-05-10T20:57:48.378Z,1.00
2023-05-10T21:00:27.203Z,0.97
2023-05-10T21:02:56.030Z,1.03
2023-05-10T21:05:26.005Z,1.30
2023-05-10T21:07:56.382Z,0.90
2023-05-10T21:10:23.384Z,0.90
2023-05-10T21:12:53.791Z,1.33
2023-05-10T21:15:29.717Z,1.23
2023-05-10T21:17:56.984Z,1.67
2023-05-10T21:20:24.305Z,1.20
2023-05-10T21:22:54.684Z,1.20
2023-05-10T21:25:22.366Z,1.37
2023-05-10T21:27:49.354Z,1.20
2023-05-10T21:30:16.507Z,1.10
2023-05-10T21:32:46.554Z,1.50
2023-05-10T21:35:15.602Z,1.30
2023-05-10T21:37:42.533Z,1.40
2023-05-10T21:40:11.189Z,1.00
2023-05-10T21:42:38.082Z,1.10
2023-05-10T21:45:06.373Z,1.30
2023-05-10T21:47:33.453Z,1.00
2023-05-10T21:50:03.114Z,1.27
2023-05-10T21:52:30.024Z,1.73
2023-05-10T21:54:56.942Z,1.37
2023-05-10T21:57:23.904Z,1.30
2023-05-10T21:59:50.878Z,1.30
2023-05-10T22:02:17.867Z,1.30
2023-05-10T22:04:45.029Z,1.10
2023-05-10T22:07:14.632Z,1.20
2023-05-10T22:09:41.582Z,1.60
2023-05-10T22:12:08.588Z,1.90
2023-05-10T22:14:37.470Z,1.83
2023-05-10T22:17:04.541Z,1.80
2023-05-10T22:19:31.551Z,1.83
2023-05-10T22:21:58.509Z,1.20
2023-05-10T22:24:28.074Z,1.37
2023-05-10T22:26:55.171Z,1.33
2023-05-10T22:29:22.147Z,1.50
2023-05-10T22:31:49.266Z,1.03
2023-05-10T22:34:16.295Z,1.00
2023-05-10T22:36:43.272Z,1.10
2023-05-10T22:39:10.276Z,1.10
2023-05-10T22:41:39.796Z,1.10
2023-05-10T22:44:06.858Z,1.10
2023-05-10T22:46:35.064Z,1.10
2023-05-10T22:49:02.082Z,1.07
2023-05-10T22:51:29.212Z,1.33
2023-05-10T22:53:56.155Z,1.63
2023-05-10T22:56:23.432Z,1.20
2023-05-10T22:58:53.101Z,1.23
2023-05-10T23:01:20.125Z,1.30
2023-05-10T23:03:47.051Z,1.47
2023-05-10T23:06:13.970Z,1.30
2023-05-10T23:08:40.871Z,1.00
2023-05-10T23:11:07.859Z,1.00
2023-05-10T23:13:34.927Z,0.80
2023-05-10T23:16:07.931Z,1.00
2023-05-10T23:18:34.906Z,0.90
2023-05-10T23:21:01.861Z,1.00
2023-05-10T23:23:28.838Z,1.03
2023-05-10T23:25:55.802Z,1.20
2023-05-10T23:28:22.732Z,1.10
2023-05-10T23:30:54.730Z,1.10
2023-05-10T23:33:25.108Z,1.00
2023-05-10T23:35:52.017Z,0.90
2023-05-10T23:38:18.956Z,0.77
2023-05-10T23:40:48.342Z,0.90
2023-05-10T23:43:15.356Z,0.97
2023-05-10T23:45:42.297Z,1.30
2023-05-10T23:48:09.329Z,0.70
2023-05-10T23:50:44.083Z,1.00
2023-05-10T23:53:10.991Z,1.07
2023-05-10T23:55:38.041Z,1.00
2023-05-10T23:58:04.992Z,0.80
